Time;durP1;ratioP1;P1;durP2;ratioP2;P2;SDS_P1;SDS_P2;PMS_P1;PMS_P2;Temp;Humidity;BMP_temperature;BMP_pressure;BME280_temperature;BME280_humidity;BME280_pressure;Samples;Min_cycle;Max_cycle;Signal;HPM_P1;HPM_P2
2022/03/05 00:00:14;;;;;;;47.65;22.58;;;;;;;0.22;74.22;98932.88;5115616;27;20035;-72
2022/03/05 00:02:39;;;;;;;51.45;23.17;;;;;;;0.21;74.19;98932.03;5110710;27;20028;-71
2022/03/05 00:05:05;;;;;;;48.08;22.50;;;;;;;0.22;74.03;98925.59;5094114;28;20063;-71
2022/03/05 00:07:31;;;;;;;52.28;23.42;;;;;;;0.28;74.60;98935.50;5109290;27;20028;-72
2022/03/05 00:09:56;;;;;;;52.65;23.42;;;;;;;0.35;74.49;98931.94;5110581;27;20482;-71
2022/03/05 00:12:22;;;;;;;44.53;22.63;;;;;;;0.41;74.18;98934.59;5110317;27;20020;-72
2022/03/05 00:14:47;;;;;;;48.40;22.65;;;;;;;0.47;74.40;98934.75;5110660;27;20028;-71
2022/03/05 00:17:13;;;;;;;52.50;24.15;;;;;;;0.49;74.23;98938.06;5109679;28;20058;-71
2022/03/05 00:19:39;;;;;;;54.55;24.67;;;;;;;0.47;74.36;98930.22;5110116;27;20434;-71
2022/03/05 00:22:05;;;;;;;55.78;24.30;;;;;;;0.53;74.21;98942.84;5109045;28;20115;-71
2022/03/05 00:24:31;;;;;;;51.97;23.95;;;;;;;0.56;74.44;98934.31;5076543;28;20119;-71
2022/03/05 00:26:56;;;;;;;51.15;23.25;;;;;;;0.63;74.40;98938.81;5109733;27;20050;-71
2022/03/05 00:29:22;;;;;;;52.63;24.75;;;;;;;0.61;74.10;98939.03;5109116;27;20027;-72
2022/03/05 00:31:48;;;;;;;46.97;22.15;;;;;;;0.64;74.01;98938.59;5113649;27;20019;-72
2022/03/05 00:34:13;;;;;;;45.70;21.05;;;;;;;0.61;73.81;98939.03;5111486;27;20448;-71
2022/03/05 00:36:38;;;;;;;46.78;22.15;;;;;;;0.55;74.00;98942.59;5110166;28;20466;-73
2022/03/05 00:39:05;;;;;;;50.33;21.80;;;;;;;0.55;73.70;98934.50;5110285;27;20956;-73
2022/03/05 00:41:31;;;;;;;47.03;22.23;;;;;;;0.54;73.58;98936.41;5112194;27;20066;-73
2022/03/05 00:43:56;;;;;;;47.92;21.52;;;;;;;0.51;73.65;98928.72;5111410;27;20111;-72
2022/03/05 00:46:22;;;;;;;46.72;20.88;;;;;;;0.51;73.63;98928.72;5112503;27;20545;-73
2022/03/05 00:48:47;;;;;;;48.05;21.50;;;;;;;0.49;73.77;98928.13;5109364;28;20023;-74
2022/03/05 00:51:13;;;;;;;48.78;21.30;;;;;;;0.50;74.00;98935.19;5109968;28;20023;-75
2022/03/05 00:53:38;;;;;;;55.88;22.55;;;;;;;0.50;73.72;98928.94;5110598;28;20471;-75
2022/03/05 00:56:04;;;;;;;53.13;23.15;;;;;;;0.48;74.15;98931.03;5110849;27;20092;-74
2022/03/05 00:58:30;;;;;;;49.90;23.38;;;;;;;0.48;73.83;98926.47;5109730;28;20032;-74
2022/03/05 01:00:56;;;;;;;46.55;21.85;;;;;;;0.50;73.93;98934.34;5108784;28;20037;-74
2022/03/05 01:03:22;;;;;;;53.38;24.15;;;;;;;0.46;73.76;98916.91;5107068;28;20028;-74
2022/03/05 01:05:47;;;;;;;46.58;21.70;;;;;;;0.48;73.37;98920.22;5092025;28;20029;-75
2022/03/05 01:08:13;;;;;;;46.20;22.38;;;;;;;0.46;73.52;98930.41;5109289;28;20038;-74
2022/03/05 01:10:38;;;;;;;50.85;24.13;;;;;;;0.49;74.14;98928.13;5108517;28;20027;-74
2022/03/05 01:13:03;;;;;;;48.60;22.13;;;;;;;0.56;74.14;98930.75;5109512;28;20144;-74
2022/03/05 01:15:29;;;;;;;46.65;20.45;;;;;;;0.61;74.09;98924.72;5108601;28;20020;-74
2022/03/05 01:17:54;;;;;;;49.03;22.17;;;;;;;0.56;73.94;98930.75;5109667;28;20023;-75
2022/03/05 01:20:20;;;;;;;51.65;24.05;;;;;;;0.47;73.64;98929.38;5106972;28;20035;-74
2022/03/05 01:22:45;;;;;;;51.67;22.77;;;;;;;0.40;74.06;98927.56;5108322;28;20422;-74
2022/03/05 01:25:10;;;;;;;48.75;22.17;;;;;;;0.35;74.08;98923.84;5109041;28;20053;-74
2022/03/05 01:27:36;;;;;;;47.58;21.20;;;;;;;0.35;74.18;98924.69;5090940;28;20019;-74
2022/03/05 01:30:02;;;;;;;53.33;23.50;;;;;;;0.33;73.72;98923.25;5090931;28;20086;-74
2022/03/05 01:32:27;;;;;;;46.85;22.58;;;;;;;0.36;74.36;98923.66;5109820;28;20073;-75
2022/03/05 01:34:53;;;;;;;48.47;22.02;;;;;;;0.34;74.32;98927.59;5110355;28;20031;-75
2022/03/05 01:37:18;;;;;;;51.88;22.65;;;;;;;0.31;73.88;98923.47;5108826;28;20034;-74
2022/03/05 01:39:44;;;;;;;47.45;22.67;;;;;;;0.29;74.41;98920.97;5109288;28;20020;-75
2022/03/05 01:42:09;;;;;;;46.38;22.75;;;;;;;0.29;73.90;98920.97;5109432;28;20035;-74
2022/03/05 01:44:35;;;;;;;50.00;23.58;;;;;;;0.28;74.58;98919.31;5110249;28;20026;-75
2022/03/05 01:47:02;;;;;;;49.75;22.83;;;;;;;0.32;74.31;98921.59;5109822;28;20060;-75
2022/03/05 01:49:29;;;;;;;57.03;27.02;;;;;;;0.28;74.25;98919.31;5109837;28;20032;-75
2022/03/05 01:51:55;;;;;;;63.40;29.75;;;;;;;0.33;74.43;98923.25;5110124;28;20057;-75
2022/03/05 01:54:21;;;;;;;57.72;26.42;;;;;;;0.37;74.65;98921.75;5109243;28;20044;-75
2022/03/05 01:56:47;;;;;;;56.45;24.70;;;;;;;0.38;73.82;98923.41;5107873;28;20480;-75
2022/03/05 01:59:12;;;;;;;51.97;23.48;;;;;;;0.42;74.29;98924.63;5107941;28;20181;-75
2022/03/05 02:01:38;;;;;;;58.30;25.40;;;;;;;0.39;74.49;98919.69;5107953;28;20103;-75
2022/03/05 02:04:04;;;;;;;46.85;22.80;;;;;;;0.40;74.05;98921.34;5109831;28;20032;-74
2022/03/05 02:06:29;;;;;;;53.00;24.23;;;;;;;0.41;74.42;98921.09;5108711;28;20026;-74
2022/03/05 02:08:57;;;;;;;58.60;24.77;;;;;;;0.42;74.01;98914.66;5109586;28;20046;-75
2022/03/05 02:11:23;;;;;;;49.60;23.70;;;;;;;0.43;74.54;98924.41;5109143;28;20023;-75
2022/03/05 02:13:50;;;;;;;54.40;23.73;;;;;;;0.40;74.62;98919.47;5109873;28;20034;-75
2022/03/05 02:16:15;;;;;;;55.58;24.10;;;;;;;0.42;74.37;98922.75;5109308;28;20028;-75
2022/03/05 02:18:47;;;;;;;56.00;23.92;;;;;;;0.45;74.25;98913.41;5109966;28;20489;-75
2022/03/05 02:21:14;;;;;;;56.25;25.40;;;;;;;0.41;73.96;98912.19;5108537;28;20035;-75
2022/03/05 02:23:39;;;;;;;58.78;25.15;;;;;;;0.38;73.99;98923.41;5109762;28;20059;-75
2022/03/05 02:26:05;;;;;;;52.65;23.48;;;;;;;0.33;74.39;98916.00;5109178;28;20435;-75
2022/03/05 02:28:32;;;;;;;53.75;22.83;;;;;;;0.32;74.19;98910.78;5109356;28;20031;-75
2022/03/05 02:30:59;;;;;;;49.80;23.65;;;;;;;0.29;74.17;98917.47;5109698;28;20031;-75
2022/03/05 02:33:25;;;;;;;52.90;24.50;;;;;;;0.32;74.19;98913.50;5108607;28;20050;-75
2022/03/05 02:35:50;;;;;;;49.28;22.02;;;;;;;0.36;74.33;98907.47;5113596;28;20103;-74
2022/03/05 02:38:18;;;;;;;52.88;23.65;;;;;;;0.36;74.42;98915.56;5108932;28;20812;-75
2022/03/05 02:40:45;;;;;;;52.30;24.00;;;;;;;0.36;74.16;98912.84;5112478;28;20076;-75
2022/03/05 02:43:10;;;;;;;52.60;23.70;;;;;;;0.35;74.20;98915.75;5112428;28;20027;-75
2022/03/05 02:45:36;;;;;;;56.67;25.88;;;;;;;0.33;74.17;98917.84;5113263;28;20030;-74
2022/03/05 02:48:06;;;;;;;47.42;23.67;;;;;;;0.36;74.25;98915.56;5112616;28;20081;-74
2022/03/05 02:50:32;;;;;;;46.60;22.35;;;;;;;0.40;74.43;98913.22;5112337;28;20020;-75
2022/03/05 02:52:57;;;;;;;50.63;24.10;;;;;;;0.39;74.20;98912.41;5113283;28;20047;-75
2022/03/05 02:55:23;;;;;;;51.03;23.13;;;;;;;0.33;74.48;98916.00;5113185;28;20032;-74
2022/03/05 02:57:48;;;;;;;53.10;25.08;;;;;;;0.33;74.55;98923.25;5112946;28;20461;-74
2022/03/05 03:00:15;;;;;;;54.38;23.13;;;;;;;0.34;74.73;98919.50;5111571;28;20032;-75
2022/03/05 03:02:40;;;;;;;52.35;24.70;;;;;;;0.30;74.52;98919.13;5113534;28;20035;-74
2022/03/05 03:05:06;;;;;;;52.28;24.58;;;;;;;0.29;74.07;98917.47;5112803;28;20392;-74
2022/03/05 03:07:32;;;;;;;53.92;24.45;;;;;;;0.31;74.53;98926.16;5112412;28;20027;-74
2022/03/05 03:09:58;;;;;;;53.85;25.58;;;;;;;0.29;74.84;98929.06;5094930;28;20104;-74
2022/03/05 03:12:27;;;;;;;52.72;24.70;;;;;;;0.29;74.71;98920.97;5111688;28;20036;-74
2022/03/05 03:14:52;;;;;;;47.05;21.42;;;;;;;0.35;75.07;98926.56;5113094;28;20024;-74
2022/03/05 03:17:18;;;;;;;55.95;24.58;;;;;;;0.32;74.33;98925.13;5112370;28;20042;-75
2022/03/05 03:19:43;;;;;;;54.63;25.27;;;;;;;0.28;74.96;98922.03;5113100;28;20357;-75
2022/03/05 03:22:09;;;;;;;57.55;24.83;;;;;;;0.31;74.81;98925.31;5110974;28;20122;-74
2022/03/05 03:24:35;;;;;;;55.33;24.73;;;;;;;0.31;74.76;98925.31;5111774;28;20027;-74
2022/03/05 03:27:00;;;;;;;53.10;25.13;;;;;;;0.27;74.53;98923.06;5111468;28;20027;-74
2022/03/05 03:29:26;;;;;;;51.78;23.15;;;;;;;0.27;74.67;98931.16;5111898;28;20028;-74
2022/03/05 03:31:51;;;;;;;53.70;24.48;;;;;;;0.28;74.70;98923.91;5112500;28;20039;-74
2022/03/05 03:34:16;;;;;;;54.75;25.23;;;;;;;0.32;75.19;98929.69;5112362;28;20043;-74
2022/03/05 03:36:42;;;;;;;53.53;24.45;;;;;;;0.31;74.82;98928.88;5112668;28;20081;-74
2022/03/05 03:39:07;;;;;;;50.72;23.73;;;;;;;0.32;74.91;98930.53;5111445;28;20085;-74
2022/03/05 03:41:33;;;;;;;56.90;25.35;;;;;;;0.32;74.83;98932.38;5111514;28;20038;-74
2022/03/05 03:43:58;;;;;;;48.80;23.35;;;;;;;0.33;74.89;98934.03;5112859;28;20416;-74
2022/03/05 03:46:24;;;;;;;56.65;24.48;;;;;;;0.32;74.93;98930.53;5109832;28;20022;-74
2022/03/05 03:48:49;;;;;;;53.67;24.50;;;;;;;0.33;75.39;98931.34;5110814;28;20072;-74
2022/03/05 03:51:15;;;;;;;63.90;28.25;;;;;;;0.31;74.96;98934.25;5111352;28;20035;-74
2022/03/05 03:53:40;;;;;;;54.28;26.10;;;;;;;0.33;74.84;98931.34;5111769;28;20058;-74
2022/03/05 03:56:05;;;;;;;54.50;24.77;;;;;;;0.35;75.18;98929.25;5110885;28;20502;-75
2022/03/05 03:58:31;;;;;;;60.05;27.80;;;;;;;0.33;75.20;98931.34;5108867;28;20039;-74
2022/03/05 04:00:56;;;;;;;63.47;27.45;;;;;;;0.34;74.83;98930.28;5111076;28;20032;-74
2022/03/05 04:03:22;;;;;;;66.03;27.98;;;;;;;0.34;74.89;98930.28;5112354;28;20346;-74
2022/03/05 04:05:47;;;;;;;63.40;28.05;;;;;;;0.32;75.08;98925.13;5111667;28;20023;-74
2022/03/05 04:10:56;;;;;;;52.13;24.65;;;;;;;0.36;75.18;98920.09;5112461;28;20127;-74
2022/03/05 04:13:22;;;;;;;61.15;28.25;;;;;;;0.36;74.78;98920.94;5110416;28;20115;-74
2022/03/05 04:15:47;;;;;;;56.38;26.05;;;;;;;0.41;74.95;98923.78;5111032;28;20015;-74
2022/03/05 04:18:13;;;;;;;66.13;31.58;;;;;;;0.44;75.04;98920.66;5111082;28;20533;-74
2022/03/05 04:20:38;;;;;;;60.97;28.42;;;;;;;0.51;75.22;98922.50;5111827;28;20126;-74
2022/03/05 04:23:04;;;;;;;56.50;26.15;;;;;;;0.49;74.54;98928.13;5092958;28;20032;-74
2022/03/05 04:25:29;;;;;;;58.45;27.30;;;;;;;0.49;74.72;98925.44;5112054;28;20459;-75
2022/03/05 04:27:55;;;;;;;61.05;27.48;;;;;;;0.51;74.74;98925.19;5111508;28;20480;-75
2022/03/05 04:30:20;;;;;;;55.03;25.52;;;;;;;0.51;74.97;98927.88;5110623;28;20024;-75
2022/03/05 04:32:46;;;;;;;52.35;22.95;;;;;;;0.51;74.64;98939.53;5111502;28;20020;-75
2022/03/05 04:35:12;;;;;;;58.05;26.65;;;;;;;0.52;75.18;98933.09;5110643;28;20392;-75
2022/03/05 04:37:38;;;;;;;58.75;25.95;;;;;;;0.52;74.40;98938.47;5111410;28;20058;-75
2022/03/05 04:40:05;;;;;;;55.22;26.27;;;;;;;0.50;75.12;98937.88;5110619;28;20123;-75
2022/03/05 04:42:30;;;;;;;59.63;28.00;;;;;;;0.51;75.42;98944.09;5110529;28;20046;-75
2022/03/05 04:44:56;;;;;;;60.05;27.25;;;;;;;0.49;74.95;98943.47;5111409;28;20500;-75
2022/03/05 04:47:21;;;;;;;64.35;33.05;;;;;;;0.49;75.14;98943.47;5110144;28;20034;-75
2022/03/05 04:49:47;;;;;;;59.53;29.65;;;;;;;0.50;75.60;98950.53;5110808;28;20016;-74
2022/03/05 04:52:13;;;;;;;85.75;38.70;;;;;;;0.46;74.71;98942.06;5109125;28;21370;-74
2022/03/05 04:54:38;;;;;;;78.75;36.47;;;;;;;0.44;75.09;98954.94;5110723;28;20563;-74
2022/03/05 04:57:04;;;;;;;82.40;37.85;;;;;;;0.43;75.10;98942.50;5109539;28;20028;-74
2022/03/05 04:59:30;;;;;;;67.50;32.75;;;;;;;0.40;74.56;98948.31;5110574;28;20093;-75
2022/03/05 05:01:56;;;;;;;57.65;28.75;;;;;;;0.43;74.79;98953.28;5110736;28;20036;-74
2022/03/05 05:04:22;;;;;;;65.80;32.42;;;;;;;0.46;74.96;98946.59;5110280;28;20056;-75
2022/03/05 05:06:47;;;;;;;70.55;35.28;;;;;;;0.46;75.04;98947.44;5107589;28;20090;-73
2022/03/05 05:09:13;;;;;;;70.80;37.33;;;;;;;0.46;75.33;98952.00;5107741;28;20092;-75
2022/03/05 05:11:39;;;;;;;72.63;35.35;;;;;;;0.46;75.02;98952.84;5109458;28;20419;-74
2022/03/05 05:14:04;;;;;;;70.78;36.25;;;;;;;0.44;75.56;98950.34;5109647;28;20055;-74
2022/03/05 05:16:30;;;;;;;72.07;33.92;;;;;;;0.45;75.11;98951.19;5110043;28;20019;-75
2022/03/05 05:21:39;;;;;;;75.00;36.90;;;;;;;0.46;75.13;98957.41;5109601;28;20034;-75
2022/03/05 05:24:05;;;;;;;72.68;38.35;;;;;;;0.43;75.07;98958.69;5109983;28;20024;-75
2022/03/05 05:26:31;;;;;;;84.65;41.17;;;;;;;0.41;75.33;98960.75;5107946;28;20102;-75
2022/03/05 05:28:56;;;;;;;78.00;39.15;;;;;;;0.43;74.65;98959.50;5110732;28;20502;-75
2022/03/05 05:31:21;;;;;;;59.17;28.80;;;;;;;0.45;75.34;98962.00;5109451;28;20107;-75
2022/03/05 05:33:49;;;;;;;91.13;46.70;;;;;;;0.48;75.31;98961.56;5110235;28;20069;-75
2022/03/05 05:36:14;;;;;;;71.60;32.92;;;;;;;0.51;74.89;98971.91;5109482;28;20032;-75
2022/03/05 05:38:40;;;;;;;71.40;30.75;;;;;;;0.50;75.22;98969.41;5108437;28;20024;-75
2022/03/05 05:41:06;;;;;;;86.60;35.08;;;;;;;0.46;75.44;98968.19;5088039;28;20399;-75
2022/03/05 05:43:32;;;;;;;85.57;35.25;;;;;;;0.45;74.98;98967.38;5110632;28;20425;-74
2022/03/05 05:45:57;;;;;;;89.85;42.13;;;;;;;0.39;74.75;98963.69;5110456;28;20061;-75
2022/03/05 05:48:23;;;;;;;88.90;37.60;;;;;;;0.35;74.80;98970.56;5108201;28;20105;-75
2022/03/05 05:50:48;;;;;;;84.88;37.47;;;;;;;0.36;75.02;98965.97;5109041;28;20060;-75
2022/03/05 05:53:14;;;;;;;85.60;36.63;;;;;;;0.35;74.88;98964.31;5101785;28;20054;-73
2022/03/05 05:55:39;;;;;;;80.28;34.42;;;;;;;0.40;75.02;98965.34;5089505;28;20035;-75
2022/03/05 05:58:05;;;;;;;83.90;34.88;;;;;;;0.43;75.31;98970.28;5109992;28;20043;-75
2022/03/05 06:00:30;;;;;;;81.82;34.03;;;;;;;0.47;75.09;98970.69;5108201;28;20527;-75
2022/03/05 06:02:55;;;;;;;71.65;29.85;;;;;;;0.50;74.83;98978.34;5110246;28;20437;-75
2022/03/05 06:05:21;;;;;;;73.82;34.00;;;;;;;0.53;75.32;98974.38;5109458;28;20026;-75
2022/03/05 06:07:46;;;;;;;82.32;36.22;;;;;;;0.54;75.23;98979.59;5110086;28;20047;-75
2022/03/05 06:10:12;;;;;;;82.47;37.50;;;;;;;0.61;74.97;98981.41;5089912;28;20112;-75
2022/03/05 06:12:37;;;;;;;68.75;30.70;;;;;;;0.63;75.18;98988.22;5109356;28;20035;-75
2022/03/05 06:15:04;;;;;;;76.22;34.58;;;;;;;0.68;75.45;98979.47;5109816;28;20497;-75
2022/03/05 06:17:30;;;;;;;96.25;43.50;;;;;;;0.70;74.73;98989.03;5112268;28;20120;-75
2022/03/05 06:19:56;;;;;;;92.47;47.58;;;;;;;0.69;74.67;98983.81;5108769;28;20491;-75
2022/03/05 06:22:23;;;;;;;130.68;61.08;;;;;;;0.70;74.83;98986.31;5109078;28;20487;-75
2022/03/05 06:24:48;;;;;;;76.07;35.67;;;;;;;0.73;74.88;98985.03;5110525;28;20120;-75
2022/03/05 06:27:14;;;;;;;76.35;36.28;;;;;;;0.75;74.86;98991.06;5113751;28;20055;-75
2022/03/05 06:29:39;;;;;;;87.78;40.63;;;;;;;0.73;74.48;98993.16;5112185;28;20020;-75
2022/03/05 06:32:05;;;;;;;85.85;41.20;;;;;;;0.77;74.73;98998.94;5109701;28;20035;-74
2022/03/05 06:34:31;;;;;;;69.38;34.97;;;;;;;0.83;75.06;98998.88;5115805;28;20042;-75
2022/03/05 06:36:57;;;;;;;68.45;33.55;;;;;;;0.85;74.62;98994.09;5112915;28;20032;-75
2022/03/05 06:39:22;;;;;;;62.33;30.33;;;;;;;0.82;74.37;98999.94;5113386;28;20488;-75
2022/03/05 06:41:47;;;;;;;50.78;25.60;;;;;;;0.80;74.12;98999.31;5114701;28;20019;-75
2022/03/05 06:44:13;;;;;;;45.53;22.50;;;;;;;0.78;74.36;99004.13;5115264;28;20032;-75
2022/03/05 06:46:38;;;;;;;42.88;21.23;;;;;;;0.78;74.00;99003.31;5114653;28;20051;-74
2022/03/05 06:49:04;;;;;;;44.50;22.15;;;;;;;0.76;74.24;99014.31;5112824;28;20042;-74
2022/03/05 06:51:29;;;;;;;46.90;21.63;;;;;;;0.78;74.20;99014.09;5114668;28;20027;-75
2022/03/05 06:53:54;;;;;;;37.35;19.02;;;;;;;0.77;73.91;99012.44;5115353;28;20122;-74
2022/03/05 06:56:20;;;;;;;39.42;20.10;;;;;;;0.80;74.12;99012.81;5092456;28;20032;-74
2022/03/05 06:58:45;;;;;;;37.72;18.95;;;;;;;0.80;73.84;99012.03;5109018;28;20089;-74
2022/03/05 07:01:11;;;;;;;38.70;18.85;;;;;;;0.78;73.74;99012.22;5106001;28;20024;-74
2022/03/05 07:03:36;;;;;;;66.57;29.88;;;;;;;0.73;73.13;99017.44;5109228;28;20637;-74
2022/03/05 07:06:02;;;;;;;59.30;27.25;;;;;;;0.74;73.55;99009.13;5107830;28;20031;-75
2022/03/05 07:08:28;;;;;;;39.25;20.67;;;;;;;0.74;73.28;99017.25;5107801;28;20027;-74
2022/03/05 07:10:53;;;;;;;56.65;27.27;;;;;;;0.69;73.70;99021.63;5107722;28;20365;-75
2022/03/05 07:13:18;;;;;;;61.22;31.27;;;;;;;0.70;73.16;99017.88;5106404;28;20044;-75
2022/03/05 07:15:44;;;;;;;44.33;22.92;;;;;;;0.76;73.69;99010.78;5109526;28;20028;-76
2022/03/05 07:18:09;;;;;;;36.25;20.90;;;;;;;0.76;73.84;99022.41;5106986;28;20082;-75
2022/03/05 07:20:35;;;;;;;38.38;21.73;;;;;;;0.80;73.14;99018.22;5112195;27;20020;-75
2022/03/05 07:23:00;;;;;;;37.30;19.88;;;;;;;0.80;73.30;99015.53;5111652;27;20032;-75
2022/03/05 07:25:26;;;;;;;41.50;21.17;;;;;;;0.88;73.44;99027.94;5109620;28;20598;-74
2022/03/05 07:27:51;;;;;;;46.40;22.05;;;;;;;0.95;73.75;99025.19;5110100;28;20387;-74
2022/03/05 07:30:16;;;;;;;47.65;21.75;;;;;;;0.98;73.51;99030.16;5111198;27;20164;-73
2022/03/05 07:32:42;;;;;;;47.13;22.25;;;;;;;1.04;73.67;99026.56;5107360;27;20016;-75
2022/03/05 07:35:08;;;;;;;50.58;23.13;;;;;;;1.11;73.62;99018.44;5109796;28;20084;-75
2022/03/05 07:37:34;;;;;;;52.42;24.67;;;;;;;1.18;73.62;99033.53;5109258;27;20575;-75
2022/03/05 07:39:59;;;;;;;42.08;20.80;;;;;;;1.23;73.32;99037.44;5113621;27;20110;-75
2022/03/05 07:42:25;;;;;;;40.90;20.90;;;;;;;1.31;73.04;99037.16;5110282;28;20028;-82
2022/03/05 07:44:51;;;;;;;43.97;22.40;;;;;;;1.38;73.23;99031.69;5113796;27;20380;-80
2022/03/05 07:47:16;;;;;;;37.50;20.52;;;;;;;1.45;73.31;99035.16;5110061;28;20031;-79
2022/03/05 07:49:42;;;;;;;37.92;20.00;;;;;;;1.49;73.40;99042.59;5110836;28;20023;-77
2022/03/05 07:52:07;;;;;;;40.75;21.17;;;;;;;1.53;72.78;99029.47;5111123;28;20422;-84
2022/03/05 07:54:33;;;;;;;39.15;20.65;;;;;;;1.58;73.11;99031.50;5112500;28;20034;-82
2022/03/05 07:56:58;;;;;;;37.05;19.60;;;;;;;1.58;72.23;99031.50;5112627;28;20426;-83
2022/03/05 07:59:24;;;;;;;61.28;29.77;;;;;;;1.66;72.47;99036.63;5110279;28;20048;-79
2022/03/05 08:01:49;;;;;;;48.70;24.42;;;;;;;1.72;72.70;99041.16;5112071;28;20093;-80
2022/03/05 08:04:15;;;;;;;47.83;24.75;;;;;;;1.76;72.09;99038.81;5112117;28;20024;-83
2022/03/05 08:06:40;;;;;;;43.38;22.27;;;;;;;1.89;72.03;99038.69;5110438;28;20527;-78
2022/03/05 08:09:06;;;;;;;42.40;22.17;;;;;;;1.94;71.98;99035.28;5112769;27;20042;-79
2022/03/05 08:11:31;;;;;;;39.55;22.05;;;;;;;2.02;71.95;99035.00;5111666;28;20028;-80
2022/03/05 08:13:56;;;;;;;38.42;19.75;;;;;;;2.14;71.77;99042.34;5089754;28;20123;-76
2022/03/05 08:16:22;;;;;;;35.45;20.35;;;;;;;2.26;72.63;99045.94;5112031;27;20038;-74
2022/03/05 08:18:47;;;;;;;38.05;19.35;;;;;;;2.39;71.90;99039.56;5109343;27;20123;-80
2022/03/05 08:21:13;;;;;;;37.85;20.55;;;;;;;2.43;71.71;99040.75;5110628;28;20077;-80
2022/03/05 08:23:38;;;;;;;43.75;22.35;;;;;;;2.45;70.83;99045.94;5111983;28;20084;-75
2022/03/05 08:26:05;;;;;;;44.72;22.42;;;;;;;2.45;71.10;99044.03;5109889;28;20527;-74
2022/03/05 08:28:31;;;;;;;38.72;20.40;;;;;;;2.50;71.20;99046.88;5113832;27;20020;-74
2022/03/05 08:30:56;;;;;;;41.92;22.60;;;;;;;2.61;71.47;99048.00;5096177;28;20038;-76
2022/03/05 08:33:21;;;;;;;39.40;20.98;;;;;;;2.67;70.53;99046.25;5114136;27;20414;-76
2022/03/05 08:35:48;;;;;;;42.00;20.85;;;;;;;2.74;71.02;99049.69;5104150;28;20024;-76
2022/03/05 08:38:14;;;;;;;37.22;19.05;;;;;;;2.82;71.16;99043.97;5110302;28;20024;-75
2022/03/05 08:40:40;;;;;;;36.15;19.83;;;;;;;2.92;70.71;99051.53;5111266;28;20080;-76
2022/03/05 08:43:05;;;;;;;40.50;20.08;;;;;;;3.03;71.08;99040.94;5110990;28;20034;-77
2022/03/05 08:45:31;;;;;;;39.65;21.63;;;;;;;3.06;70.36;99049.44;5110589;28;20023;-77
2022/03/05 08:47:56;;;;;;;41.22;22.15;;;;;;;3.10;69.80;99052.50;5111931;28;20111;-77
2022/03/05 08:50:22;;;;;;;39.65;20.33;;;;;;;3.10;69.90;99060.63;5113391;27;20049;-77
2022/03/05 08:52:47;;;;;;;37.88;19.70;;;;;;;3.06;68.60;99054.84;5113092;28;20022;-76
2022/03/05 08:55:16;;;;;;;39.75;21.00;;;;;;;3.07;69.50;99061.91;5113122;28;20395;-77
2022/03/05 08:57:42;;;;;;;36.90;19.67;;;;;;;3.20;69.12;99066.31;5109274;27;20480;-81
2022/03/05 09:00:10;;;;;;;62.80;27.13;;;;;;;3.31;68.94;99063.84;5113848;27;20076;-79
2022/03/05 09:02:36;;;;;;;49.45;24.02;;;;;;;3.37;69.18;99063.72;5112410;27;20032;-79
2022/03/05 09:05:02;;;;;;;37.20;19.88;;;;;;;3.40;68.38;99062.47;5115122;27;20023;-79
2022/03/05 09:07:28;;;;;;;37.85;19.95;;;;;;;3.40;68.20;99062.47;5113706;27;20059;-79
2022/03/05 09:09:54;;;;;;;45.58;20.90;;;;;;;3.41;67.79;99061.41;5113786;27;20503;-83
2022/03/05 09:12:19;;;;;;;37.72;20.75;;;;;;;3.44;67.92;99060.94;5111123;27;20055;-78
2022/03/05 09:14:46;;;;;;;33.30;17.70;;;;;;;3.51;68.51;99058.91;5110457;27;20027;-77
2022/03/05 09:17:12;;;;;;;37.08;19.45;;;;;;;3.56;67.76;99064.47;5113762;27;20027;-80
2022/03/05 09:19:38;;;;;;;43.40;22.00;;;;;;;3.56;67.06;99060.94;5112324;27;20027;-77
2022/03/05 09:22:06;;;;;;;37.75;19.85;;;;;;;3.48;66.41;99051.25;5118994;27;20031;-77
2022/03/05 09:24:32;;;;;;;31.60;17.13;;;;;;;3.50;66.87;99053.72;5114612;27;20111;-78
2022/03/05 09:26:57;;;;;;;34.70;19.40;;;;;;;3.56;67.08;99052.78;5116813;27;20119;-80
2022/03/05 09:29:23;;;;;;;33.83;17.33;;;;;;;3.60;67.02;99059.41;5112516;27;20023;-80
2022/03/05 09:31:49;;;;;;;36.35;18.65;;;;;;;3.58;65.95;99054.19;5115738;27;20504;-75
2022/03/05 09:34:14;;;;;;;33.80;17.15;;;;;;;3.70;66.71;99053.38;5116252;27;20057;-74
2022/03/05 09:36:40;;;;;;;27.10;15.48;;;;;;;3.77;66.85;99061.38;5113948;27;20042;-75
2022/03/05 09:39:05;;;;;;;24.42;13.85;;;;;;;3.85;66.75;99061.88;5117190;27;20098;-79
2022/03/05 09:41:31;;;;;;;27.70;15.10;;;;;;;3.88;65.47;99057.84;5114090;27;20031;-78
2022/03/05 09:43:56;;;;;;;27.67;14.15;;;;;;;4.01;66.19;99056.78;5110931;28;20019;-79
2022/03/05 09:46:22;;;;;;;29.33;15.55;;;;;;;4.03;65.77;99062.78;5108547;28;20028;-79
2022/03/05 09:48:52;;;;;;;27.52;15.65;;;;;;;3.99;64.64;99058.91;5110123;28;20020;-78
2022/03/05 09:51:17;;;;;;;27.20;14.73;;;;;;;4.02;64.57;99056.53;5107145;28;20513;-77
2022/03/05 09:53:44;;;;;;;27.15;14.00;;;;;;;4.13;64.61;99057.59;5109664;28;20035;-77
2022/03/05 09:56:09;;;;;;;19.45;11.25;;;;;;;4.22;64.68;99055.31;5106400;28;20115;-77
2022/03/05 09:58:35;;;;;;;23.92;12.02;;;;;;;4.13;62.67;99056.75;5110150;28;20075;-77
2022/03/05 10:01:00;;;;;;;19.55;11.85;;;;;;;4.00;62.59;99055.97;5091695;28;20479;-81
2022/03/05 10:03:27;;;;;;;24.45;12.85;;;;;;;3.86;61.37;99054.53;5086798;28;20028;-74
2022/03/05 10:05:52;;;;;;;27.33;14.40;;;;;;;3.88;61.04;99058.66;5109780;28;20415;-75
2022/03/05 10:08:20;;;;;;;22.60;11.75;;;;;;;3.99;61.49;99054.31;5109234;28;20471;-74
2022/03/05 10:11:01;;;;;;;22.70;11.85;;;;;;;4.05;61.46;99054.41;5108819;28;20515;-75
2022/03/05 10:13:31;;;;;;;27.40;14.57;;;;;;;4.08;61.34;99053.91;5107162;28;20027;-76
2022/03/05 10:15:59;;;;;;;21.75;12.82;;;;;;;4.13;59.69;99057.59;5106612;28;20032;-75
2022/03/05 10:18:36;;;;;;;20.02;11.73;;;;;;;4.26;59.50;99052.97;5108915;28;20744;-75
2022/03/05 10:21:05;;;;;;;20.70;10.95;;;;;;;4.31;59.95;99053.03;5106886;28;20036;-75
2022/03/05 10:23:36;;;;;;;21.35;12.55;;;;;;;4.26;59.35;99055.69;5103501;28;20030;-75
2022/03/05 10:26:04;;;;;;;29.23;14.30;;;;;;;4.29;58.79;99056.00;5106469;28;20023;-75
2022/03/05 10:28:30;;;;;;;21.13;11.65;;;;;;;4.27;58.45;99052.72;5108894;28;20482;-75
2022/03/05 10:31:10;;;;;;;21.33;11.95;;;;;;;4.23;58.27;99053.44;5093888;28;20020;-75
2022/03/05 10:33:40;;;;;;;19.05;11.05;;;;;;;4.13;57.39;99046.72;5107353;28;20074;-75
2022/03/05 10:36:23;;;;;;;20.20;10.98;;;;;;;4.05;57.66;99047.09;5108431;28;20024;-75
2022/03/05 10:38:57;;;;;;;40.67;19.63;;;;;;;4.05;58.16;99047.09;5108289;28;20069;-74
2022/03/05 10:41:34;;;;;;;46.53;23.10;;;;;;;4.17;57.55;99052.50;5107906;28;20086;-74
2022/03/05 10:44:18;;;;;;;37.85;18.98;;;;;;;4.14;57.85;99042.94;5113192;28;20032;-74
2022/03/05 10:46:46;;;;;;;27.58;15.25;;;;;;;4.18;58.08;99048.72;5111793;28;20439;-74
2022/03/05 10:49:22;;;;;;;23.95;13.13;;;;;;;4.24;58.19;99053.19;5105580;28;20037;-74
2022/03/05 10:52:00;;;;;;;22.08;12.45;;;;;;;4.28;57.53;99053.53;5105723;28;20523;-75
2022/03/05 10:54:27;;;;;;;23.85;11.77;;;;;;;4.12;56.58;99053.22;5108785;28;20076;-74
2022/03/05 10:57:05;;;;;;;22.02;12.20;;;;;;;3.94;56.81;99051.47;5112497;28;20102;-74
2022/03/05 10:59:34;;;;;;;19.48;12.30;;;;;;;3.75;56.65;99055.38;5110784;28;20088;-75
2022/03/05 11:02:01;;;;;;;18.73;11.15;;;;;;;3.58;56.83;99056.09;5108861;28;20039;-77
2022/03/05 11:04:27;;;;;;;23.23;12.57;;;;;;;3.42;56.55;99055.72;5108703;28;20031;-76
2022/03/05 11:06:54;;;;;;;18.65;10.57;;;;;;;3.38;56.73;99064.56;5094670;28;20379;-74
2022/03/05 11:09:23;;;;;;;19.02;11.20;;;;;;;3.30;56.40;99054.88;5108401;28;20032;-74
2022/03/05 11:11:51;;;;;;;19.33;11.02;;;;;;;3.25;56.93;99052.88;5107238;28;20032;-74
2022/03/05 11:14:16;;;;;;;17.30;10.30;;;;;;;3.19;56.67;99055.72;5110982;28;20039;-72
2022/03/05 11:16:42;;;;;;;15.48;8.38;;;;;;;3.14;56.67;99053.69;5111609;28;20081;-73
2022/03/05 11:19:08;;;;;;;11.57;6.63;;;;;;;3.10;54.46;99049.78;5090786;28;20023;-73
2022/03/05 11:21:34;;;;;;;14.23;6.90;;;;;;;3.05;54.72;99055.09;5109415;28;20163;-73
2022/03/05 11:24:00;;;;;;;19.15;9.45;;;;;;;2.96;53.93;99060.84;5112844;28;20039;-73